createdAt,value
2022-10-23T00:00:47.576Z,26.67
2022-10-23T00:03:14.855Z,28.50
2022-10-23T00:05:41.999Z,27.00
2022-10-23T00:08:09.267Z,36.20
2022-10-23T00:10:36.431Z,30.13
2022-10-23T00:13:03.519Z,30.30
2022-10-23T00:15:30.719Z,34.37
2022-10-23T00:17:57.807Z,35.27
2022-10-23T00:20:24.891Z,28.97
2022-10-23T00:22:51.994Z,26.40
2022-10-23T00:25:20.104Z,29.70
2022-10-23T00:27:47.187Z,27.13
2022-10-23T00:30:14.415Z,29.77
2022-10-23T00:32:41.605Z,29.53
2022-10-23T00:35:08.963Z,26.13
2022-10-23T00:37:36.061Z,25.60
2022-10-23T00:40:04.697Z,69.20
2022-10-23T00:42:31.772Z,216.13
2022-10-23T00:45:17.271Z,202.30
2022-10-23T00:47:44.385Z,270.63
2022-10-23T00:50:11.579Z,153.07
2022-10-23T00:52:41.622Z,198.03
2022-10-23T00:55:09.036Z,188.43
2022-10-23T00:57:36.184Z,165.27
2022-10-23T01:00:03.590Z,103.67
2022-10-23T01:02:30.770Z,148.33
2022-10-23T01:04:57.949Z,224.33
2022-10-23T01:07:24.969Z,237.70
2022-10-23T01:09:52.014Z,127.57
2022-10-23T01:12:21.893Z,205.77
2022-10-23T01:14:54.926Z,263.50
2022-10-23T01:17:34.244Z,143.40
2022-10-23T01:20:01.307Z,265.67
2022-10-23T01:22:28.381Z,302.57
2022-10-23T01:25:03.555Z,207.50
2022-10-23T01:27:38.579Z,141.87
2022-10-23T01:30:08.026Z,195.30
2022-10-23T01:32:35.161Z,97.37
2022-10-23T01:35:12.567Z,73.67
2022-10-23T01:37:44.810Z,133.50
2022-10-23T01:40:14.870Z,121.07
2022-10-23T01:42:45.566Z,57.80
2022-10-23T01:45:22.538Z,178.53
2022-10-23T01:47:50.318Z,65.53
2022-10-23T01:50:18.023Z,82.00
2022-10-23T01:52:45.291Z,99.80
2022-10-23T01:55:12.963Z,81.87
2022-10-23T01:57:41.208Z,77.00
2022-10-23T02:00:10.157Z,80.73
2022-10-23T02:02:38.294Z,78.23
2022-10-23T02:05:11.496Z,69.57
2022-10-23T02:07:38.805Z,64.87
2022-10-23T02:10:06.986Z,84.93
2022-10-23T02:12:44.398Z,122.77
2022-10-23T02:15:33.353Z,64.33
2022-10-23T02:18:07.436Z,120.90
2022-10-23T02:20:40.596Z,96.33
2022-10-23T02:23:13.655Z,174.43
2022-10-23T02:25:47.298Z,169.10
2022-10-23T02:28:16.834Z,171.63
2022-10-23T02:30:46.115Z,236.30
2022-10-23T02:33:13.903Z,185.23
2022-10-23T02:35:41.079Z,89.73
2022-10-23T02:38:27.900Z,132.10
2022-10-23T02:40:56.856Z,154.67
2022-10-23T02:43:28.083Z,80.73
2022-10-23T02:46:00.618Z,103.80
2022-10-23T02:48:33.690Z,105.17
2022-10-23T02:51:11.591Z,105.17
2022-10-23T02:53:44.812Z,62.03
2022-10-23T02:56:29.586Z,70.20
2022-10-23T02:59:01.189Z,86.17
2022-10-23T03:01:30.476Z,76.63
2022-10-23T03:03:58.910Z,73.80
2022-10-23T03:06:26.477Z,83.30
2022-10-23T03:08:55.197Z,28.57
2022-10-23T03:11:22.307Z,48.83
2022-10-23T03:13:49.380Z,63.90
2022-10-23T03:16:16.711Z,89.17
2022-10-23T03:18:43.766Z,179.27
2022-10-23T03:21:10.861Z,174.47
2022-10-23T03:23:37.965Z,119.33
2022-10-23T03:26:05.119Z,93.73
2022-10-23T03:28:32.507Z,135.67
2022-10-23T03:31:02.111Z,116.80
2022-10-23T03:33:29.749Z,72.20
2022-10-23T03:35:56.902Z,56.13
2022-10-23T03:38:24.017Z,15.27
2022-10-23T03:40:51.161Z,43.90
2022-10-23T03:43:18.259Z,19.40
2022-10-23T03:45:45.324Z,26.47
2022-10-23T03:48:12.550Z,48.17
2022-10-23T03:50:39.659Z,51.30
2022-10-23T03:53:06.757Z,49.40
2022-10-23T03:55:33.818Z,33.00
2022-10-23T03:58:00.905Z,127.63
2022-10-23T04:00:28.054Z,125.37
2022-10-23T04:02:55.347Z,194.83
2022-10-23T04:05:22.443Z,243.40
2022-10-23T04:07:49.567Z,206.67
2022-10-23T04:10:16.633Z,245.03
2022-10-23T04:12:43.877Z,352.67
2022-10-23T04:15:11.223Z,294.63
2022-10-23T04:17:38.313Z,160.43
2022-10-23T04:20:05.616Z,266.83
2022-10-23T04:22:32.692Z,179.33
2022-10-23T04:24:59.755Z,314.47
2022-10-23T04:27:26.865Z,187.17
2022-10-23T04:29:56.778Z,262.77
2022-10-23T04:32:26.146Z,360.47
2022-10-23T04:34:53.332Z,246.13
2022-10-23T04:37:20.447Z,288.87
2022-10-23T04:39:47.624Z,366.57
2022-10-23T04:42:14.947Z,338.63
2022-10-23T04:44:42.106Z,237.27
2022-10-23T04:47:09.166Z,410.00
2022-10-23T04:49:36.238Z,351.30
2022-10-23T04:52:03.299Z,259.13
2022-10-23T04:54:30.383Z,320.53
2022-10-23T04:56:57.463Z,227.93
2022-10-23T04:59:24.530Z,268.83
2022-10-23T05:01:51.709Z,361.10
2022-10-23T05:04:18.894Z,262.37
2022-10-23T05:06:46.032Z,334.63
2022-10-23T05:09:13.141Z,392.60
2022-10-23T05:11:40.210Z,313.70
2022-10-23T05:14:07.388Z,248.83
2022-10-23T05:16:34.447Z,345.57
2022-10-23T05:19:01.929Z,293.27
2022-10-23T05:21:30.589Z,389.27
2022-10-23T05:23:57.723Z,480.47
2022-10-23T05:26:24.812Z,505.80
2022-10-23T05:28:51.886Z,450.30
2022-10-23T05:31:19.983Z,359.63
2022-10-23T05:33:47.065Z,457.87
2022-10-23T05:36:14.775Z,264.23
2022-10-23T05:38:42.203Z,427.90
2022-10-23T05:41:09.276Z,518.83
2022-10-23T05:43:36.417Z,356.23
2022-10-23T05:46:07.027Z,406.70
2022-10-23T05:48:35.429Z,401.90
2022-10-23T05:51:04.099Z,484.10
2022-10-23T05:53:31.199Z,344.90
2022-10-23T05:56:03.749Z,371.47
2022-10-23T05:58:31.032Z,314.47
2022-10-23T06:00:58.178Z,287.70
2022-10-23T06:03:25.307Z,324.77
2022-10-23T06:05:52.927Z,268.83
2022-10-23T06:08:20.058Z,517.47
2022-10-23T06:10:47.188Z,401.30
2022-10-23T06:13:14.271Z,393.93
2022-10-23T06:15:41.364Z,405.43
2022-10-23T06:18:08.460Z,311.70
2022-10-23T06:20:37.218Z,304.37
2022-10-23T06:23:04.933Z,339.23
2022-10-23T06:25:32.445Z,355.17
2022-10-23T06:27:59.567Z,415.90
2022-10-23T06:30:26.708Z,329.30
2022-10-23T06:32:54.521Z,360.90
2022-10-23T06:35:21.623Z,244.38
2022-10-23T06:37:48.716Z,338.70
2022-10-23T06:40:15.846Z,348.77
2022-10-23T06:42:43.168Z,461.03
2022-10-23T06:45:10.474Z,289.03
2022-10-23T06:47:37.583Z,201.30
2022-10-23T06:50:04.944Z,228.93
2022-10-23T06:52:46.360Z,317.93
2022-10-23T06:55:14.717Z,580.77
2022-10-23T06:57:42.242Z,576.37
2022-10-23T07:00:10.056Z,548.03
2022-10-23T07:02:37.275Z,179.33
2022-10-23T07:05:07.666Z,207.17
2022-10-23T07:07:37.065Z,89.53
2022-10-23T07:10:04.496Z,99.17
2022-10-23T07:12:31.688Z,380.67
2022-10-23T07:14:58.773Z,767.00
2022-10-23T07:17:25.912Z,650.17
2022-10-23T07:19:53.037Z,662.10
2022-10-23T07:22:20.108Z,230.60
2022-10-23T07:24:47.219Z,77.00
2022-10-23T07:27:14.326Z,548.07
2022-10-23T07:29:42.074Z,369.00
2022-10-23T07:32:09.285Z,65.33
2022-10-23T07:34:36.906Z,277.90
2022-10-23T07:37:04.020Z,101.13
2022-10-23T07:39:31.125Z,72.27
2022-10-23T07:41:58.227Z,146.40
2022-10-23T07:44:27.633Z,276.37
2022-10-23T07:46:55.061Z,63.23
2022-10-23T07:49:22.131Z,93.53
2022-10-23T07:51:51.415Z,67.47
2022-10-23T07:54:19.026Z,25.43
2022-10-23T07:56:46.176Z,65.83
2022-10-23T07:59:13.761Z,32.77
2022-10-23T08:01:42.621Z,34.17
2022-10-23T08:04:10.892Z,40.03
2022-10-23T08:06:38.360Z,49.00
2022-10-23T08:09:06.783Z,63.33
2022-10-23T08:11:37.810Z,73.73
2022-10-23T08:14:05.996Z,37.43
2022-10-23T08:16:34.506Z,48.20
2022-10-23T08:19:02.035Z,48.33
2022-10-23T08:21:29.515Z,42.63
2022-10-23T08:23:57.253Z,34.27
2022-10-23T08:26:24.779Z,36.57
2022-10-23T08:28:52.425Z,17.43
2022-10-23T08:31:20.493Z,43.40
2022-10-23T08:36:27.412Z,29.77
2022-10-23T08:38:55.638Z,53.50
2022-10-23T08:41:22.714Z,43.23
2022-10-23T08:43:52.526Z,22.13
2022-10-23T08:46:19.834Z,37.20
2022-10-23T08:48:57.326Z,70.93
2022-10-23T08:51:24.422Z,28.80
2022-10-23T08:54:01.335Z,93.17
2022-10-23T08:56:31.551Z,46.70
2022-10-23T08:59:05.297Z,18.83
2022-10-23T09:01:41.423Z,20.50
2022-10-23T09:04:10.574Z,13.13
2022-10-23T09:06:41.090Z,15.33
2022-10-23T09:09:10.948Z,36.40
2022-10-23T09:11:58.305Z,12.40
2022-10-23T09:14:26.697Z,46.57
2022-10-23T09:17:08.818Z,12.83
2022-10-23T09:19:35.917Z,11.10
2022-10-23T09:22:03.123Z,13.90
2022-10-23T09:24:31.727Z,11.63
2022-10-23T09:26:59.151Z,12.57
2022-10-23T09:29:27.901Z,10.17
2022-10-23T09:31:56.300Z,9.60
2022-10-23T09:34:24.653Z,12.38
2022-10-23T09:36:53.438Z,11.38
2022-10-23T09:39:30.621Z,9.10
2022-10-23T09:41:58.154Z,8.80
2022-10-23T09:44:27.399Z,9.68
2022-10-23T09:46:55.787Z,8.95
2022-10-23T09:49:30.175Z,7.68
2022-10-23T09:52:12.879Z,8.18
2022-10-23T09:54:45.220Z,8.07
2022-10-23T09:57:15.643Z,9.68
2022-10-23T09:59:43.031Z,6.80
2022-10-23T10:02:21.002Z,7.93
2022-10-23T10:04:48.205Z,8.05
2022-10-23T10:07:35.986Z,8.52
2022-10-23T10:10:07.874Z,6.10
2022-10-23T10:12:50.479Z,8.23
2022-10-23T10:15:28.314Z,6.68
2022-10-23T10:18:30.617Z,9.25
2022-10-23T10:21:09.399Z,8.10
2022-10-23T10:24:05.881Z,7.68
2022-10-23T10:26:40.212Z,8.65
2022-10-23T10:29:10.312Z,8.23
2022-10-23T10:31:59.846Z,8.88
2022-10-23T10:34:30.054Z,6.88
2022-10-23T10:36:59.158Z,7.47
2022-10-23T10:39:26.740Z,6.50
2022-10-23T10:41:59.809Z,7.38
2022-10-23T10:44:32.754Z,6.82
2022-10-23T10:47:05.224Z,6.63
2022-10-23T10:50:01.658Z,6.78
2022-10-23T10:52:34.650Z,9.57
2022-10-23T10:55:22.062Z,8.07
2022-10-23T10:58:01.992Z,4.97
2022-10-23T11:00:30.597Z,5.95
2022-10-23T11:03:04.988Z,6.47
2022-10-23T11:05:39.597Z,8.25
2022-10-23T11:08:13.652Z,8.88
2022-10-23T11:10:43.433Z,7.15
2022-10-23T11:13:33.774Z,7.88
2022-10-23T11:16:03.721Z,6.55
2022-10-23T11:18:31.723Z,6.35
2022-10-23T11:21:08.516Z,5.65
2022-10-23T11:23:38.356Z,6.97
2022-10-23T11:26:34.629Z,6.38
2022-10-23T11:29:18.912Z,7.15
2022-10-23T11:31:52.587Z,4.72
2022-10-23T11:34:23.315Z,10.55
2022-10-23T11:36:54.933Z,7.45
2022-10-23T11:39:34.844Z,6.55
2022-10-23T11:42:04.926Z,7.38
2022-10-23T11:44:48.371Z,11.48
2022-10-23T11:47:39.203Z,10.13
2022-10-23T11:50:07.359Z,9.93
2022-10-23T11:52:45.567Z,8.82
2022-10-23T11:55:19.546Z,5.68
2022-10-23T11:58:02.900Z,8.18
2022-10-23T12:00:30.550Z,8.15
2022-10-23T12:02:59.228Z,7.30
2022-10-23T12:05:32.547Z,9.07
2022-10-23T12:08:00.806Z,11.20
2022-10-23T12:10:30.776Z,17.15
2022-10-23T12:12:59.398Z,11.27
2022-10-23T12:15:27.275Z,6.65
2022-10-23T12:17:55.778Z,5.60
2022-10-23T12:20:31.564Z,5.40
2022-10-23T12:23:04.655Z,4.70
2022-10-23T12:25:50.509Z,9.30
2022-10-23T12:28:23.697Z,6.47
2022-10-23T12:33:31.305Z,5.68
2022-10-23T12:36:22.529Z,6.57
2022-10-23T12:38:49.896Z,5.18
2022-10-23T12:41:18.862Z,6.18
2022-10-23T12:43:50.988Z,6.50
2022-10-23T12:46:21.214Z,7.47
2022-10-23T12:48:49.614Z,5.53
2022-10-23T12:51:23.011Z,6.63
2022-10-23T12:53:50.406Z,7.80
2022-10-23T12:56:17.732Z,3.97
2022-10-23T12:58:55.275Z,6.43
2022-10-23T13:01:24.385Z,4.75
2022-10-23T13:03:51.986Z,5.75
2022-10-23T13:06:19.195Z,6.68
2022-10-23T13:08:47.577Z,4.25
2022-10-23T13:11:16.191Z,5.43
2022-10-23T13:13:43.328Z,5.88
2022-10-23T13:16:23.626Z,5.72
2022-10-23T13:18:51.238Z,6.90
2022-10-23T13:21:22.811Z,10.30
2022-10-23T13:23:50.312Z,6.22
2022-10-23T13:26:30.682Z,7.35
2022-10-23T13:28:58.318Z,8.63
2022-10-23T13:31:27.817Z,6.75
2022-10-23T13:34:01.067Z,10.40
2022-10-23T13:36:32.264Z,12.02
2022-10-23T13:39:02.138Z,10.18
2022-10-23T13:41:30.682Z,8.52
2022-10-23T13:43:57.791Z,6.28
2022-10-23T13:46:25.746Z,5.65
2022-10-23T13:48:53.277Z,7.90
2022-10-23T13:51:20.382Z,6.20
2022-10-23T13:53:47.933Z,7.93
2022-10-23T13:56:15.747Z,6.60
2022-10-23T13:58:43.161Z,6.88
2022-10-23T14:01:28.902Z,7.75
2022-10-23T14:03:57.072Z,6.95
2022-10-23T14:06:24.180Z,8.32
2022-10-23T14:08:51.251Z,9.50
2022-10-23T14:11:19.504Z,6.95
2022-10-23T14:13:46.589Z,9.15
2022-10-23T14:16:14.133Z,5.47
2022-10-23T14:18:41.298Z,6.43
2022-10-23T14:21:09.421Z,8.20
2022-10-23T14:23:36.506Z,8.23
2022-10-23T14:26:07.174Z,6.90
2022-10-23T14:28:34.285Z,6.72
2022-10-23T14:31:08.008Z,6.60
2022-10-23T14:33:35.123Z,7.10
2022-10-23T14:36:02.587Z,5.00
2022-10-23T14:38:29.863Z,6.32
2022-10-23T14:40:57.058Z,8.48
2022-10-23T14:43:24.469Z,6.20
2022-10-23T14:45:51.629Z,11.93
2022-10-23T14:48:18.976Z,6.53
2022-10-23T14:50:47.487Z,5.43
2022-10-23T14:53:14.716Z,8.27
2022-10-23T14:55:42.056Z,8.35
2022-10-23T14:58:09.405Z,7.72
2022-10-23T15:00:36.458Z,9.18
2022-10-23T15:03:03.588Z,5.63
2022-10-23T15:05:30.707Z,8.52
2022-10-23T15:07:58.987Z,14.15
2022-10-23T15:10:26.062Z,8.40
2022-10-23T15:12:53.156Z,8.45
2022-10-23T15:15:20.255Z,6.85
2022-10-23T15:17:47.362Z,9.20
2022-10-23T15:20:14.453Z,9.35
2022-10-23T15:22:41.769Z,11.65
2022-10-23T15:25:11.246Z,20.02
2022-10-23T15:27:39.255Z,15.93
2022-10-23T15:30:06.556Z,13.57
2022-10-23T15:32:33.760Z,12.82
2022-10-23T15:35:00.908Z,11.27
2022-10-23T15:37:28.072Z,13.30
2022-10-23T15:39:59.745Z,13.27
2022-10-23T15:42:29.236Z,13.18
2022-10-23T15:44:56.344Z,10.25
2022-10-23T15:47:23.417Z,10.27
2022-10-23T15:49:50.484Z,12.38
2022-10-23T15:52:17.597Z,12.27
2022-10-23T15:54:44.743Z,8.73
2022-10-23T15:57:11.875Z,8.15
2022-10-23T15:59:39.063Z,8.97
2022-10-23T16:02:06.288Z,9.47
2022-10-23T16:04:34.193Z,11.00
2022-10-23T16:07:01.251Z,9.87
2022-10-23T16:09:28.337Z,7.90
2022-10-23T16:11:55.511Z,8.60
2022-10-23T16:14:22.623Z,7.33
2022-10-23T16:16:49.731Z,10.43
2022-10-23T16:19:16.809Z,8.53
2022-10-23T16:21:43.883Z,8.20
2022-10-23T16:24:11.174Z,6.90
2022-10-23T16:26:38.904Z,10.27
2022-10-23T16:29:07.090Z,9.97
2022-10-23T16:31:35.448Z,10.27
2022-10-23T16:34:03.184Z,9.20
2022-10-23T16:36:30.379Z,9.50
2022-10-23T16:38:57.439Z,11.60
2022-10-23T16:41:24.564Z,7.40
2022-10-23T16:43:51.682Z,7.93
2022-10-23T16:46:20.036Z,8.07
2022-10-23T16:48:47.254Z,9.23
2022-10-23T16:51:15.451Z,9.70
2022-10-23T16:53:43.267Z,14.47
2022-10-23T16:56:11.572Z,9.30
2022-10-23T16:58:40.901Z,9.53
2022-10-23T17:01:09.491Z,12.67
2022-10-23T17:03:38.121Z,10.83
2022-10-23T17:06:08.767Z,11.33
2022-10-23T17:08:37.559Z,8.67
2022-10-23T17:11:07.532Z,6.83
2022-10-23T17:13:34.906Z,8.10
2022-10-23T17:16:09.443Z,14.93
2022-10-23T17:18:39.905Z,11.60
2022-10-23T17:21:10.980Z,13.67
2022-10-23T17:23:38.137Z,11.23
2022-10-23T17:26:07.385Z,9.70
2022-10-23T17:28:39.741Z,14.13
2022-10-23T17:31:13.149Z,14.43
2022-10-23T17:33:40.892Z,10.80
2022-10-23T17:36:08.264Z,11.23
2022-10-23T17:38:36.539Z,11.93
2022-10-23T17:41:03.838Z,13.60
2022-10-23T17:43:30.986Z,12.83
2022-10-23T17:45:58.348Z,14.17
2022-10-23T17:48:25.669Z,14.50
2022-10-23T17:51:01.541Z,13.47
2022-10-23T17:53:28.720Z,12.80
2022-10-23T17:55:55.879Z,13.80
2022-10-23T17:58:22.972Z,10.00
2022-10-23T18:00:50.166Z,10.67
2022-10-23T18:03:19.874Z,11.07
2022-10-23T18:05:47.207Z,8.63
2022-10-23T18:08:14.307Z,8.10
2022-10-23T18:10:41.479Z,14.47
2022-10-23T18:13:08.582Z,9.47
2022-10-23T18:15:35.962Z,8.90
2022-10-23T18:18:07.805Z,11.23
2022-10-23T18:20:39.909Z,7.23
2022-10-23T18:23:07.404Z,7.83
2022-10-23T18:25:34.899Z,8.50
2022-10-23T18:28:02.639Z,9.43
2022-10-23T18:30:29.973Z,9.10
2022-10-23T18:32:58.188Z,11.30
2022-10-23T18:35:25.465Z,7.97
2022-10-23T18:37:52.666Z,12.63
2022-10-23T18:40:20.546Z,8.87
2022-10-23T18:42:48.650Z,8.40
2022-10-23T18:45:16.816Z,12.83
2022-10-23T18:47:44.119Z,19.33
2022-10-23T18:50:11.580Z,17.20
2022-10-23T18:52:38.698Z,30.70
2022-10-23T18:55:06.851Z,28.33
2022-10-23T18:57:34.579Z,27.90
2022-10-23T19:00:02.104Z,10.97
2022-10-23T19:02:29.363Z,10.97
2022-10-23T19:04:56.566Z,11.13
2022-10-23T19:07:23.728Z,12.27
2022-10-23T19:09:50.885Z,8.37
2022-10-23T19:12:18.507Z,12.00
2022-10-23T19:14:45.929Z,14.90
2022-10-23T19:17:19.522Z,12.77
2022-10-23T19:19:49.141Z,15.13
2022-10-23T19:22:16.702Z,13.27
2022-10-23T19:24:45.544Z,13.43
2022-10-23T19:27:12.665Z,13.57
2022-10-23T19:29:43.500Z,13.97
2022-10-23T19:32:10.684Z,20.13
2022-10-23T19:34:37.789Z,13.90
2022-10-23T19:37:04.970Z,14.90
2022-10-23T19:39:32.157Z,12.87
2022-10-23T19:42:00.355Z,13.30
2022-10-23T19:44:27.510Z,13.50
2022-10-23T19:46:54.654Z,14.70
2022-10-23T19:49:23.786Z,15.23
2022-10-23T19:51:51.657Z,10.73
2022-10-23T19:54:19.446Z,13.97
2022-10-23T19:56:46.552Z,11.53
2022-10-23T19:59:13.882Z,13.00
2022-10-23T20:01:43.892Z,15.13
2022-10-23T20:04:13.578Z,17.83
2022-10-23T20:06:40.751Z,19.50
2022-10-23T20:09:09.781Z,20.30
2022-10-23T20:11:37.892Z,21.00
2022-10-23T20:14:05.232Z,21.40
2022-10-23T20:16:33.805Z,23.87
2022-10-23T20:19:03.090Z,19.10
2022-10-23T20:21:30.586Z,18.23
2022-10-23T20:23:58.255Z,20.37
2022-10-23T20:26:25.386Z,20.47
2022-10-23T20:28:53.837Z,17.43
2022-10-23T20:31:21.960Z,18.20
2022-10-23T20:33:49.245Z,16.03
2022-10-23T20:36:27.077Z,21.80
2022-10-23T20:38:54.681Z,17.90
2022-10-23T20:41:22.429Z,15.50
2022-10-23T20:43:49.584Z,23.87
2022-10-23T20:46:16.726Z,22.87
2022-10-23T20:48:44.630Z,15.20
2022-10-23T20:51:13.345Z,16.73
2022-10-23T20:53:41.206Z,16.13
2022-10-23T20:56:17.515Z,14.00
2022-10-23T20:58:44.622Z,16.43
2022-10-23T21:01:12.897Z,14.10
2022-10-23T21:03:40.286Z,15.00
2022-10-23T21:06:08.859Z,16.70
2022-10-23T21:08:35.917Z,13.57
2022-10-23T21:11:03.035Z,13.63
2022-10-23T21:13:30.154Z,18.37
2022-10-23T21:15:57.401Z,15.53
2022-10-23T21:18:34.129Z,17.60
2022-10-23T21:21:12.487Z,15.73
2022-10-23T21:23:40.013Z,17.60
2022-10-23T21:26:07.764Z,21.00
2022-10-23T21:28:35.184Z,19.23
2022-10-23T21:31:03.571Z,14.63
2022-10-23T21:33:30.735Z,16.83
2022-10-23T21:36:04.807Z,17.90
2022-10-23T21:38:40.217Z,15.33
2022-10-23T21:41:07.592Z,15.90
2022-10-23T21:43:35.234Z,17.97
2022-10-23T21:46:06.534Z,23.40
2022-10-23T21:48:33.915Z,19.60
2022-10-23T21:51:01.398Z,15.93
2022-10-23T21:53:29.353Z,14.20
2022-10-23T21:55:57.033Z,15.23
2022-10-23T21:58:24.093Z,19.13
2022-10-23T22:00:51.163Z,13.73
2022-10-23T22:03:18.262Z,24.93
2022-10-23T22:05:45.349Z,16.97
2022-10-23T22:08:12.407Z,18.40
2022-10-23T22:10:39.511Z,19.27
2022-10-23T22:13:06.611Z,18.20
2022-10-23T22:15:33.704Z,20.67
2022-10-23T22:18:00.872Z,13.80
2022-10-23T22:20:27.964Z,18.77
2022-10-23T22:22:55.042Z,17.53
2022-10-23T22:25:22.108Z,14.13
2022-10-23T22:27:49.179Z,13.80
2022-10-23T22:30:16.298Z,15.70
2022-10-23T22:32:43.756Z,12.83
2022-10-23T22:35:11.006Z,15.10
2022-10-23T22:37:38.134Z,11.50
2022-10-23T22:40:05.448Z,12.30
2022-10-23T22:42:32.577Z,12.93
2022-10-23T22:44:59.666Z,12.97
2022-10-23T22:47:26.768Z,12.00
2022-10-23T22:49:53.851Z,14.83
2022-10-23T22:52:20.941Z,13.43
2022-10-23T22:54:48.478Z,14.37
2022-10-23T22:57:15.606Z,15.77
2022-10-23T22:59:42.783Z,18.63
2022-10-23T23:02:10.091Z,11.50
2022-10-23T23:04:38.724Z,16.03
2022-10-23T23:07:07.453Z,17.10
2022-10-23T23:09:36.779Z,18.40
2022-10-23T23:12:03.965Z,16.67
2022-10-23T23:14:31.093Z,13.23
2022-10-23T23:16:58.236Z,12.87
2022-10-23T23:19:26.583Z,17.43
2022-10-23T23:21:57.323Z,12.70
2022-10-23T23:24:24.493Z,18.27
2022-10-23T23:26:51.718Z,17.63
2022-10-23T23:29:18.893Z,15.17
2022-10-23T23:31:46.092Z,17.93
2022-10-23T23:34:13.260Z,17.80
2022-10-23T23:36:40.353Z,13.03
2022-10-23T23:39:07.483Z,14.97
2022-10-23T23:41:34.557Z,20.73
2022-10-23T23:44:01.641Z,14.57
2022-10-23T23:46:28.770Z,15.93
2022-10-23T23:48:55.865Z,18.57
2022-10-23T23:51:24.422Z,19.70
2022-10-23T23:53:51.933Z,16.80
2022-10-23T23:56:19.404Z,15.17
2022-10-23T23:58:46.698Z,21.07
